Station Historical Data
Daily Summary for September 17, 2017 Units:  Metric    English   Both
« Previous Day
Next Day »
Daily Weekly Monthly Yearly Custom
  High: Low: Average:
Temperature: 28.6 °C 15.2 °C 21.6 °C
Dew Point: 19.3 °C 13.9 °C 16.5 °C
Humidity: 93% 51% 75%
Wind Speed: 8km/h 0km/h 1.1km/h
Wind Gust: 12.9km/h - -
Wind- - WSW
Pressure: 1020.5 hPa 1017.5 hPa -
Precipitation: 0 mm    
Historical Graphs
 
 
Tabular Data for September 17, 2017
Time Temperature Dew Point Pressure Wind Wind Speed Wind Gust Humidity Rainfall Rate (Hourly)
00:04 18.5 °C 16.5 °C 1020.5 hPa Calm     88% 0 mm
00:09 18.4 °C 16.6 °C 1020.5 hPa Calm     89% 0 mm
00:14 18.3 °C 16.4 °C 1020.5 hPa Calm     89% 0 mm
00:19 18.2 °C 16.4 °C 1020.5 hPa Calm     89% 0 mm
00:24 18.1 °C 16.2 °C 1020.5 hPa Calm     89% 0 mm
00:29 17.9 °C 16.1 °C 1020.2 hPa Calm     89% 0 mm
00:34 17.8 °C 16 °C 1020.2 hPa Calm     89% 0 mm
00:39 17.7 °C 15.9 °C 1020.2 hPa Calm     89% 0 mm
00:44 17.7 °C 16.1 °C 1020.2 hPa Calm     90% 0 mm
00:49 17.6 °C 15.9 °C 1020.2 hPa Calm     90% 0 mm
00:54 17.6 °C 15.9 °C 1020.2 hPa Calm     90% 0 mm
00:59 17.4 °C 15.8 °C 1020.2 hPa Calm     90% 0 mm
01:05 17.3 °C 15.7 °C 1020.2 hPa Calm     90% 0 mm
01:10 17.3 °C 15.7 °C 1020.2 hPa Calm     90% 0 mm
01:15 17.3 °C 15.6 °C 1020.2 hPa Calm     90% 0 mm
01:20 17.2 °C 15.5 °C 1020.2 hPa Calm     90% 0 mm
01:25 17.1 °C 15.4 °C 1020.2 hPa Calm     90% 0 mm
01:30 17.1 °C 15.4 °C 1020.2 hPa Calm     90% 0 mm
01:35 17 °C 15.5 °C 1020.2 hPa Calm     91% 0 mm
01:40 17.2 °C 15.7 °C 1020.2 hPa Calm     91% 0 mm
01:45 17.2 °C 15.7 °C 1020.2 hPa Calm     91% 0 mm
01:50 17.2 °C 15.7 °C 1020.2 hPa Calm     91% 0 mm
01:55 17.2 °C 15.7 °C 1020.2 hPa Calm     91% 0 mm
02:00 17.1 °C 15.6 °C 1020.2 hPa Calm     91% 0 mm
02:10 17.1 °C 15.6 °C 1020.2 hPa Calm     91% 0 mm
02:15 17 °C 15.5 °C 1019.9 hPa Calm     91% 0 mm
02:20 16.9 °C 15.4 °C 1019.9 hPa Calm     91% 0 mm
02:25 16.8 °C 15.3 °C 1019.9 hPa Calm     91% 0 mm
02:30 16.8 °C 15.3 °C 1019.9 hPa Calm     91% 0 mm
02:35 16.7 °C 15.2 °C 1019.9 hPa Calm     91% 0 mm
02:40 16.6 °C 15.1 °C 1019.9 hPa Calm     91% 0 mm
02:45 16.5 °C 15 °C 1019.9 hPa Calm     91% 0 mm
02:50 16.4 °C 14.9 °C 1019.9 hPa Calm     91% 0 mm
02:55 16.4 °C 14.9 °C 1019.9 hPa Calm     91% 0 mm
03:00 16.4 °C 14.9 °C 1019.9 hPa Calm     91% 0 mm
03:05 16.4 °C 15.2 °C 1019.9 hPa Calm     92% 0 mm
03:10 16.4 °C 15.1 °C 1019.9 hPa Calm     92% 0 mm
03:15 16.4 °C 14.9 °C 1019.9 hPa Calm     91% 0 mm
03:20 16.3 °C 14.8 °C 1019.9 hPa Calm     91% 0 mm
03:25 16.3 °C 15 °C 1019.9 hPa Calm     92% 0 mm
03:30 16.2 °C 14.8 °C 1019.9 hPa Calm     91% 0 mm
03:35 16.2 °C 14.7 °C 1019.9 hPa Calm     91% 0 mm
03:40 16.1 °C 14.6 °C 1019.9 hPa Calm     91% 0 mm
03:45 16 °C 14.7 °C 1019.9 hPa Calm     92% 0 mm
03:50 15.9 °C 14.4 °C 1019.9 hPa Calm     91% 0 mm
03:55 15.9 °C 14.6 °C 1019.9 hPa Calm     92% 0 mm
04:00 15.9 °C 14.6 °C 1019.9 hPa Calm     92% 0 mm
04:05 15.8 °C 14.4 °C 1020.2 hPa Calm     91% 0 mm
04:10 15.7 °C 14.3 °C 1020.2 hPa Calm     91% 0 mm
04:14 15.7 °C 14.4 °C 1020.2 hPa Calm     92% 0 mm
04:20 15.8 °C 14.5 °C 1019.9 hPa Calm     92% 0 mm
04:25 15.8 °C 14.6 °C 1019.9 hPa Calm     92% 0 mm
04:30 15.8 °C 14.6 °C 1019.9 hPa Calm     92% 0 mm
04:35 15.8 °C 14.5 °C 1020.2 hPa Calm     92% 0 mm
04:40 15.7 °C 14.4 °C 1020.2 hPa Calm     92% 0 mm
04:45 15.7 °C 14.4 °C 1020.2 hPa Calm     92% 0 mm
04:50 15.7 °C 14.4 °C 1020.2 hPa Calm     92% 0 mm
04:54 15.7 °C 14.4 °C 1020.2 hPa Calm     92% 0 mm
05:00 15.6 °C 14.3 °C 1020.2 hPa Calm     92% 0 mm
05:05 15.4 °C 14.2 °C 1020.2 hPa Calm     92% 0 mm
05:10 15.4 °C 14.1 °C 1020.2 hPa Calm     92% 0 mm
05:15 15.3 °C 14 °C 1020.2 hPa Calm     92% 0 mm
05:20 15.3 °C 14.1 °C 1020.2 hPa Calm     92% 0 mm
05:24 15.4 °C 14.1 °C 1020.2 hPa Calm     92% 0 mm
05:29 15.4 °C 14.1 °C 1020.2 hPa Calm     92% 0 mm
05:34 15.3 °C 14 °C 1020.2 hPa Calm     92% 0 mm
05:40 15.3 °C 14.1 °C 1020.2 hPa Calm     92% 0 mm
05:45 15.3 °C 14.1 °C 1020.2 hPa Calm     92% 0 mm
05:50 15.3 °C 14 °C 1020.2 hPa Calm     92% 0 mm
05:55 15.3 °C 14.2 °C 1020.2 hPa Calm     93% 0 mm
06:00 15.4 °C 14.3 °C 1020.2 hPa Calm     93% 0 mm
06:05 15.4 °C 14.3 °C 1020.2 hPa Calm     93% 0 mm
06:10 15.4 °C 14.2 °C 1020.2 hPa Calm     92% 0 mm
06:15 15.4 °C 14.1 °C 1020.2 hPa Calm     92% 0 mm
06:20 15.3 °C 14 °C 1020.5 hPa Calm     92% 0 mm
06:25 15.2 °C 13.9 °C 1020.5 hPa Calm     92% 0 mm
06:29 15.3 °C 14.2 °C 1020.5 hPa Calm     93% 0 mm
06:35 15.4 °C 14.3 °C 1020.2 hPa Calm     93% 0 mm
06:40 15.4 °C 14.3 °C 1020.5 hPa Calm     93% 0 mm
06:45 15.4 °C 14.3 °C 1020.5 hPa Calm     93% 0 mm
06:49 15.4 °C 14.3 °C 1020.5 hPa Calm     93% 0 mm
06:54 15.3 °C 14.2 °C 1020.5 hPa Calm     93% 0 mm
07:00 15.2 °C 13.9 °C 1020.5 hPa Calm     92% 0 mm
07:04 15.2 °C 13.9 °C 1020.5 hPa Calm     92% 0 mm
07:10 15.2 °C 14.1 °C 1020.5 hPa Calm     93% 0 mm
07:15 15.2 °C 14.1 °C 1020.5 hPa Calm     93% 0 mm
07:20 15.3 °C 14.2 °C 1020.5 hPa Calm     93% 0 mm
07:25 15.3 °C 14.2 °C 1020.5 hPa Calm     93% 0 mm
07:29 15.6 °C 14.4 °C 1020.5 hPa Calm     93% 0 mm
07:34 15.7 °C 14.6 °C 1020.5 hPa Calm     93% 0 mm
07:40 15.8 °C 14.7 °C 1020.5 hPa Calm     93% 0 mm
07:45 15.9 °C 14.8 °C 1020.5 hPa Calm     93% 0 mm
07:49 16.1 °C 14.9 °C 1020.5 hPa Calm     93% 0 mm
07:54 16.3 °C 15.2 °C 1020.5 hPa Calm     93% 0 mm
07:59 16.4 °C 15.3 °C 1020.5 hPa Calm     93% 0 mm
08:04 16.6 °C 15.3 °C 1020.5 hPa Calm     92% 0 mm
08:10 16.7 °C 15.4 °C 1020.5 hPa Calm     92% 0 mm
08:15 16.9 °C 15.6 °C 1020.5 hPa Calm     92% 0 mm
08:20 17.2 °C 15.8 °C 1020.5 hPa Calm     92% 0 mm
08:25 17.4 °C 15.9 °C 1020.5 hPa Calm     91% 0 mm
08:29 17.7 °C 16 °C 1020.5 hPa Calm     90% 0 mm
08:34 17.9 °C 16.2 °C 1020.5 hPa Calm     90% 0 mm
08:39 18.1 °C 16.3 °C 1020.5 hPa Calm     89% 0 mm
08:45 18.3 °C 16.3 °C 1020.5 hPa Calm     88% 0 mm
08:50 18.7 °C 16.4 °C 1020.5 hPa Calm     87% 0 mm
08:55 18.9 °C 16.5 °C 1020.5 hPa Calm     86% 0 mm
08:59 19.2 °C 16.6 °C 1020.5 hPa Calm     85% 0 mm
09:04 19.4 °C 16.8 °C 1020.5 hPa Calm     85% 0 mm
09:09 19.6 °C 16.8 °C 1020.5 hPa Calm     84% 0 mm
09:14 19.8 °C 16.8 °C 1020.5 hPa Calm     83% 0 mm
09:19 20 °C 16.8 °C 1020.5 hPa Calm     82% 0 mm
09:24 20.4 °C 17.2 °C 1020.5 hPa Calm     82% 0 mm
09:29 20.7 °C 17.3 °C 1020.5 hPa Calm     81% 0 mm
09:34 20.9 °C 17.6 °C 1020.5 hPa Calm     81% 0 mm
09:39 21.2 °C 17.4 °C 1020.5 hPa Calm     79% 0 mm
09:44 21.8 °C 17.8 °C 1020.5 hPa Calm     78% 0 mm
09:49 21.9 °C 17.9 °C 1020.5 hPa Calm     78% 0 mm
09:54 22.1 °C 17.8 °C 1020.5 hPa Calm     77% 0 mm
09:59 22.4 °C 18 °C 1020.5 hPa Calm     76% 0 mm
10:04 22.7 °C 17.8 °C 1020.2 hPa Calm     74% 0 mm
10:09 22.9 °C 18 °C 1020.2 hPa Calm     74% 0 mm
10:14 23.1 °C 18.2 °C 1020.5 hPa Calm     74% 0 mm
10:20 23.4 °C 18.3 °C 1020.5 hPa Calm     73% 0 mm
10:25 23.7 °C 18.4 °C 1020.5 hPa Calm     72% 0 mm
10:29 23.7 °C 18.2 °C 1020.5 hPa SW 1.6 km/h 8 km/h 71% 0 mm
10:39 24.1 °C 18.5 °C 1020.2 hPa WSW 4.8 km/h 6.4 km/h 71% 0 mm
10:44 24.4 °C 18.6 °C 1020.2 hPa Calm   4.8 km/h 70% 0 mm
10:49 24.5 °C 18.4 °C 1020.2 hPa SW 4.8 km/h 8 km/h 69% 0 mm
10:54 24.7 °C 19.1 °C 1020.2 hPa SSW 1.6 km/h 6.4 km/h 71% 0 mm
10:59 24.9 °C 18.8 °C 1020.2 hPa SSE 4.8 km/h 6.4 km/h 69% 0 mm
11:04 25.1 °C 18.9 °C 1020.2 hPa South 1.6 km/h 6.4 km/h 69% 0 mm
11:09 25.1 °C 18.8 °C 1020.2 hPa SSW 3.2 km/h 8 km/h 68% 0 mm
11:14 25.2 °C 18.9 °C 1020.2 hPa SSW 3.2 km/h 9.7 km/h 68% 0 mm
11:20 25.1 °C 18.3 °C 1020.2 hPa Calm   8 km/h 66% 0 mm
11:25 25.3 °C 18.9 °C 1020.2 hPa SW 4.8 km/h 6.4 km/h 68% 0 mm
11:29 25.4 °C 19.1 °C 1020.2 hPa SW 1.6 km/h 6.4 km/h 68% 0 mm
11:34 25.9 °C 19.3 °C 1020.2 hPa WSW 1.6 km/h 6.4 km/h 67% 0 mm
11:39 26.1 °C 19 °C 1020.2 hPa WSW 1.6 km/h 6.4 km/h 65% 0 mm
11:44 26 °C 18.9 °C 1020.2 hPa SSW 1.6 km/h 8 km/h 65% 0 mm
11:50 26.3 °C 19 °C 1020.2 hPa SW 3.2 km/h 8 km/h 64% 0 mm
11:54 26.4 °C 18.3 °C 1020.2 hPa WSW 3.2 km/h 8 km/h 61% 0 mm
11:59 26.4 °C 18 °C 1020.2 hPa WSW 3.2 km/h 8 km/h 60% 0 mm
12:04 26.3 °C 18.4 °C 1019.9 hPa WSW 6.4 km/h 8 km/h 62% 0 mm
12:09 26.4 °C 18 °C 1019.9 hPa WNW 3.2 km/h 6.4 km/h 60% 0 mm
12:14 26.4 °C 18.1 °C 1020.2 hPa NW 6.4 km/h 8 km/h 60% 0 mm
12:19 26.4 °C 18.6 °C 1019.9 hPa Calm   8 km/h 62% 0 mm
12:24 26.8 °C 18.9 °C 1019.9 hPa West 6.4 km/h 9.7 km/h 62% 0 mm
12:34 26.5 °C 18.1 °C 1019.9 hPa WSW 3.2 km/h 6.4 km/h 60% 0 mm
12:39 26.9 °C 18.8 °C 1019.9 hPa WSW 3.2 km/h 8 km/h 61% 0 mm
12:44 26.8 °C 18.4 °C 1019.9 hPa WSW 4.8 km/h 8 km/h 60% 0 mm
12:50 26.7 °C 18.3 °C 1019.9 hPa WSW 3.2 km/h 8 km/h 60% 0 mm
12:55 27.2 °C 19.1 °C 1019.9 hPa West 4.8 km/h 8 km/h 61% 0 mm
12:59 27.6 °C 18.9 °C 1019.9 hPa WSW 3.2 km/h 9.7 km/h 59% 0 mm
13:04 27.3 °C 18.6 °C 1019.9 hPa SW 6.4 km/h 9.7 km/h 59% 0 mm
13:09 27.3 °C 18.3 °C 1019.5 hPa West 1.6 km/h 12.9 km/h 58% 0 mm
13:14 27.3 °C 18.3 °C 1019.5 hPa West 4.8 km/h 9.7 km/h 58% 0 mm
13:19 27.1 °C 17.8 °C 1019.5 hPa West 3.2 km/h 11.3 km/h 57% 0 mm
13:24 27 °C 18.1 °C 1019.5 hPa SSW 6.4 km/h 11.3 km/h 58% 0 mm
13:29 27.3 °C 18.8 °C 1019.2 hPa SW 3.2 km/h 11.3 km/h 60% 0 mm
13:34 27.3 °C 18.1 °C 1019.5 hPa WSW 3.2 km/h 11.3 km/h 57% 0 mm
13:39 27.3 °C 18.3 °C 1019.2 hPa WSW 4.8 km/h 9.7 km/h 58% 0 mm
13:44 27.4 °C 18.4 °C 1019.2 hPa SW 4.8 km/h 11.3 km/h 58% 0 mm
13:49 27.4 °C 18.2 °C 1019.2 hPa SW 4.8 km/h 9.7 km/h 57% 0 mm
13:54 27.7 °C 18.2 °C 1018.8 hPa Calm   8 km/h 56% 0 mm
13:59 27.5 °C 18.5 °C 1018.8 hPa WSW 3.2 km/h 8 km/h 58% 0 mm
14:04 27.7 °C 18.4 °C 1018.8 hPa WSW 3.2 km/h 9.7 km/h 57% 0 mm
14:09 27.4 °C 17.9 °C 1018.8 hPa WSW 1.6 km/h 6.4 km/h 56% 0 mm
14:14 27.3 °C 18 °C 1018.5 hPa West 8 km/h 9.7 km/h 57% 0 mm
14:19 27.6 °C 18.3 °C 1018.5 hPa West 1.6 km/h 8 km/h 57% 0 mm
14:24 27.7 °C 19 °C 1018.5 hPa West 3.2 km/h 4.8 km/h 59% 0 mm
14:29 28 °C 18.1 °C 1018.5 hPa West 3.2 km/h 8 km/h 55% 0 mm
14:34 27.7 °C 18.1 °C 1018.5 hPa West 3.2 km/h 8 km/h 56% 0 mm
14:39 27.8 °C 18.2 °C 1018.5 hPa WNW 3.2 km/h 8 km/h 56% 0 mm
14:44 27.9 °C 18.3 °C 1018.5 hPa West 3.2 km/h 8 km/h 56% 0 mm
14:49 27.9 °C 17.7 °C 1018.5 hPa NNW 3.2 km/h 6.4 km/h 54% 0 mm
14:55 27.8 °C 17.9 °C 1018.5 hPa West 1.6 km/h 3.2 km/h 55% 0 mm
14:59 27.8 °C 17.7 °C 1018.5 hPa WSW 1.6 km/h 8 km/h 54% 0 mm
15:04 27.8 °C 17.9 °C 1018.5 hPa WSW 3.2 km/h 8 km/h 55% 0 mm
15:09 28.2 °C 18.3 °C 1018.5 hPa WSW 1.6 km/h 6.4 km/h 55% 0 mm
15:14 28.6 °C 18.4 °C 1018.2 hPa SW 4.8 km/h 8 km/h 54% 0 mm
15:19 28.4 °C 17.9 °C 1018.5 hPa Calm   8 km/h 53% 0 mm
15:24 28.3 °C 17.8 °C 1018.2 hPa SW 3.2 km/h 4.8 km/h 53% 0 mm
15:29 28.3 °C 17.8 °C 1018.2 hPa SW 3.2 km/h 8 km/h 53% 0 mm
15:34 28.3 °C 17.5 °C 1018.2 hPa SW 4.8 km/h 8 km/h 52% 0 mm
15:39 28 °C 17.5 °C 1018.2 hPa Calm   6.4 km/h 53% 0 mm
15:44 28.2 °C 17.1 °C 1018.2 hPa WSW 4.8 km/h 4.8 km/h 51% 0 mm
15:49 28.1 °C 17.6 °C 1017.8 hPa WSW 3.2 km/h 12.9 km/h 53% 0 mm
15:54 28.1 °C 17.3 °C 1018.2 hPa WSW 1.6 km/h 8 km/h 52% 0 mm
15:59 28 °C 17.8 °C 1017.8 hPa WSW 3.2 km/h 9.7 km/h 54% 0 mm
16:04 28.1 °C 17.6 °C 1017.8 hPa WSW 3.2 km/h 9.7 km/h 53% 0 mm
16:09 28.2 °C 17.7 °C 1017.8 hPa West 3.2 km/h 9.7 km/h 53% 0 mm
16:14 28.2 °C 17.7 °C 1017.8 hPa WSW 3.2 km/h 9.7 km/h 53% 0 mm
16:19 28.1 °C 17.9 °C 1017.8 hPa SW 1.6 km/h 11.3 km/h 54% 0 mm
16:29 28 °C 17.5 °C 1017.8 hPa SSW 4.8 km/h 8 km/h 53% 0 mm
16:34 28.1 °C 17.9 °C 1017.8 hPa WSW 3.2 km/h 8 km/h 54% 0 mm
16:39 28.2 °C 17.7 °C 1017.8 hPa WNW 4.8 km/h 6.4 km/h 53% 0 mm
16:44 28.1 °C 17.9 °C 1017.8 hPa WSW 3.2 km/h 6.4 km/h 54% 0 mm
16:49 28 °C 17.8 °C 1017.8 hPa WSW 3.2 km/h 8 km/h 54% 0 mm
16:54 28 °C 17.2 °C 1017.8 hPa Calm   6.4 km/h 52% 0 mm
16:59 27.9 °C 17.4 °C 1017.8 hPa SW 4.8 km/h 6.4 km/h 53% 0 mm
17:04 27.8 °C 17.6 °C 1017.8 hPa SW 1.6 km/h 9.7 km/h 54% 0 mm
17:09 27.7 °C 17.6 °C 1017.8 hPa WSW 3.2 km/h 9.7 km/h 54% 0 mm
17:14 27.8 °C 17 °C 1017.8 hPa WSW 3.2 km/h 8 km/h 52% 0 mm
17:19 27.8 °C 17.1 °C 1017.8 hPa SW 3.2 km/h 8 km/h 52% 0 mm
17:24 27.8 °C 17 °C 1017.5 hPa SW 3.2 km/h 8 km/h 52% 0 mm
17:29 27.7 °C 17.2 °C 1017.8 hPa West 4.8 km/h 6.4 km/h 53% 0 mm
17:34 27.6 °C 16.8 °C 1017.8 hPa West 3.2 km/h 6.4 km/h 52% 0 mm
17:39 27.4 °C 16.7 °C 1017.8 hPa West 4.8 km/h 6.4 km/h 52% 0 mm
17:44 27.3 °C 16.9 °C 1017.8 hPa West 3.2 km/h 6.4 km/h 53% 0 mm
17:49 27.3 °C 16.6 °C 1017.5 hPa SW 4.8 km/h 6.4 km/h 52% 0 mm
17:54 27.3 °C 16.8 °C 1017.5 hPa WSW 6.4 km/h 6.4 km/h 53% 0 mm
17:59 27.1 °C 16.4 °C 1017.5 hPa Calm   8 km/h 52% 0 mm
18:04 27.1 °C 16.3 °C 1017.5 hPa West 3.2 km/h 8 km/h 52% 0 mm
18:09 26.9 °C 15.9 °C 1017.5 hPa WSW 1.6 km/h 9.7 km/h 51% 0 mm
18:14 26.8 °C 16.2 °C 1017.5 hPa WSW 1.6 km/h 9.7 km/h 52% 0 mm
18:19 26.7 °C 16.3 °C 1017.5 hPa WSW 3.2 km/h 6.4 km/h 53% 0 mm
18:29 26.6 °C 15.9 °C 1017.5 hPa Calm   3.2 km/h 52% 0 mm
18:34 26.6 °C 15.9 °C 1017.5 hPa WSW 1.6 km/h 6.4 km/h 52% 0 mm
18:39 26.4 °C 15.8 °C 1017.5 hPa Calm   4.8 km/h 52% 0 mm
18:44 26.3 °C 15.7 °C 1017.5 hPa Calm     52% 0 mm
18:49 26.2 °C 15.8 °C 1017.5 hPa Calm   3.2 km/h 53% 0 mm
18:54 26 °C 15.7 °C 1017.5 hPa Calm     53% 0 mm
18:59 25.9 °C 15.6 °C 1017.5 hPa Calm     53% 0 mm
19:04 25.4 °C 15.7 °C 1017.5 hPa Calm     55% 0 mm
19:09 25.2 °C 15.6 °C 1017.5 hPa Calm     55% 0 mm
19:14 25 °C 15.9 °C 1017.5 hPa Calm     57% 0 mm
19:19 24.7 °C 15.8 °C 1017.5 hPa Calm     58% 0 mm
19:24 24.4 °C 15.8 °C 1017.5 hPa Calm     59% 0 mm
19:29 24.2 °C 15.9 °C 1017.5 hPa Calm     60% 0 mm
19:34 24 °C 15.8 °C 1017.5 hPa Calm     60% 0 mm
19:39 23.6 °C 15.9 °C 1017.5 hPa Calm     62% 0 mm
19:44 23.6 °C 15.9 °C 1017.8 hPa Calm     62% 0 mm
19:49 23.5 °C 15.8 °C 1017.5 hPa Calm     62% 0 mm
19:54 23.5 °C 15.8 °C 1017.5 hPa Calm     62% 0 mm
19:59 23.3 °C 16.1 °C 1017.5 hPa Calm     64% 0 mm
20:04 23.2 °C 16.1 °C 1017.8 hPa Calm     64% 0 mm
20:09 23.1 °C 15.9 °C 1017.8 hPa Calm     64% 0 mm
20:14 23 °C 15.8 °C 1017.8 hPa Calm     64% 0 mm
20:19 22.9 °C 16 °C 1017.8 hPa Calm     65% 0 mm
20:24 22.8 °C 15.8 °C 1017.8 hPa Calm     65% 0 mm
20:29 22.6 °C 15.9 °C 1017.8 hPa Calm     66% 0 mm
20:34 22.6 °C 16.2 °C 1017.8 hPa Calm     67% 0 mm
20:39 22.8 °C 16.8 °C 1017.8 hPa Calm     69% 0 mm
20:44 22.8 °C 16.8 °C 1017.8 hPa Calm     69% 0 mm
20:49 22.9 °C 17.1 °C 1017.8 hPa Calm     70% 0 mm
20:54 22.6 °C 16.8 °C 1017.8 hPa Calm     70% 0 mm
20:59 22.2 °C 17.1 °C 1018.2 hPa Calm     73% 0 mm
21:09 22 °C 17.2 °C 1018.5 hPa Calm     74% 0 mm
21:14 21.8 °C 17.2 °C 1018.5 hPa Calm     75% 0 mm
21:19 21.6 °C 17.4 °C 1018.5 hPa Calm     77% 0 mm
21:24 21.7 °C 17.7 °C 1018.5 hPa Calm     78% 0 mm
21:29 21.8 °C 17.8 °C 1018.5 hPa Calm     78% 0 mm
21:34 22 °C 17.8 °C 1018.5 hPa Calm     77% 0 mm
21:39 22.1 °C 17.6 °C 1018.5 hPa Calm     76% 0 mm
21:44 22.1 °C 17.6 °C 1018.5 hPa Calm     76% 0 mm
21:49 21.8 °C 17.4 °C 1018.5 hPa Calm     76% 0 mm
21:54 21.6 °C 17.3 °C 1018.5 hPa Calm     77% 0 mm
21:59 21.3 °C 17.3 °C 1018.5 hPa Calm     78% 0 mm
22:04 21 °C 17.2 °C 1018.5 hPa Calm     79% 0 mm
22:09 20.8 °C 17 °C 1018.5 hPa Calm     79% 0 mm
22:14 20.6 °C 17.1 °C 1018.5 hPa Calm     80% 0 mm
22:19 20.4 °C 16.9 °C 1018.5 hPa Calm     80% 0 mm
22:24 20.4 °C 16.8 °C 1018.5 hPa Calm     80% 0 mm
22:29 20.3 °C 16.7 °C 1018.5 hPa Calm     80% 0 mm
22:34 20.2 °C 16.8 °C 1018.5 hPa Calm     81% 0 mm
22:44 20.2 °C 16.8 °C 1018.5 hPa Calm     81% 0 mm
22:49 20.2 °C 16.7 °C 1018.5 hPa Calm     80% 0 mm
22:54 20.1 °C 16.7 °C 1018.5 hPa Calm     81% 0 mm
22:59 20.1 °C 16.7 °C 1018.5 hPa Calm     81% 0 mm
23:04 19.9 °C 16.6 °C 1018.5 hPa Calm     81% 0 mm
23:09 19.9 °C 16.7 °C 1018.5 hPa Calm     82% 0 mm
23:19 19.7 °C 16.6 °C 1018.5 hPa Calm     82% 0 mm
23:24 19.7 °C 16.7 °C 1018.5 hPa Calm     83% 0 mm
23:29 19.7 °C 16.7 °C 1018.5 hPa Calm     83% 0 mm
23:34 19.8 °C 16.8 °C 1018.5 hPa Calm     83% 0 mm
23:39 19.8 °C 16.8 °C 1018.5 hPa Calm     83% 0 mm
23:44 19.7 °C 16.8 °C 1018.2 hPa Calm     83% 0 mm
23:49 19.6 °C 16.8 °C 1018.5 hPa Calm     84% 0 mm
23:54 19.4 °C 16.6 °C 1018.2 hPa Calm     84% 0 mm
23:59 19.3 °C 16.7 °C 1018.2 hPa Calm     85% 0 mm
Buffalo, New York, USA
Compliments of Weather Underground - 2.5 mb